Chowchilla, California
Current Conditions -  °F | °C
As of 9:53 AM on Friday 19 Dec 2014 (Local Time) from KMAE Reporting Station
Clear Clear  
Wind Chill: 52°   Ceiling: Unl
Heat Index: 52°   Visibility: 10mi
Dew Point: 44°   Wind: 6mph
Humidity: 74%   Direction: 110°ESE
Pressure: 30.24"   Gusts: NA
Location:  37.12°N, 120.25°W
Report Text: KMAE 191753Z AUTO 11005KT 10SM CLR 11/07 A3024 RMK AO2 SLP241 T01110067 10111 20050 53011
Loading
Personal Weather Stations






























Interactive Weather Map New forecast layout! Learn more

10-Day Weather Forecast

Advertisements
Track Severe Weather on mobile